Shady Hills, Florida
Current Conditions -  °F | °C
As of 9:06 AM on Sunday 23 Nov 2014 (Local Time) from KBKV Reporting Station
Overcast Overcast  
Wind Chill: 75°   Ceiling: 1500
Heat Index: 75°   Visibility: 10mi
Dew Point: 70°   Wind: 15mph
Humidity: 84%   Direction: 160°SSE
Pressure: 30"   Gusts: 22mph
Location:  28.3839°N, 82.4977°W
Report Text: KBKV 231406Z 16013G19KT 10SM OVC015 24/21 A3000 RMK AO2 T02390211
Loading
Personal Weather Stations






























Interactive Weather Map New forecast layout! Learn more

10-Day Weather Forecast

Advertisements
Track Severe Weather on mobile